Portada
METAR-TAF:

METAR-TAF

Aeroports :

Sigonella, Itàlia

latitud: 37-24N, longitud: 014-55E, altitud: 22 m

Observació

L'informe es va fer fa 30 minuts, a les 23:55 UTC
Vent 4 kt del Oest
Temperatura 25°C
Humitat 74%
Pressió 1015 hPa
Visibilitat 10 km o més
sense núvols per sota de 1500 mi sense presència de cumulonimbus.

METAR: LICZ 182355Z 26004KT CAVOK 25/20 Q1015 RMK SKC VIS MIN 9999 WIND THR28 26004KT WIND THR10 26002KT A2999 BLU

Hora: 02:25 (00:25 UTC)

Pronòstic

L'informe es va fer fa 1 hora i 25 minuts, a les 23:00 UTC
Pronòstic vàlid del 19 a les 00 UTC al 19 a les 24 UTC
Vent 5 kt del Oest
Visibilitat 10 km o més
sense núvols per sota de 1500 mi sense presència de cumulonimbus.
Evolucionant progressivament
l' 19 a les 10 UTC al 19 a les 12 UTC
Vent 12 kt del Est
Evolucionant progressivament
l' 19 a les 19 UTC al 19 a les 21 UTC
Vent 5 kt del Oest

TAF: LICZ 182300Z 1900/1924 27005KT CAVOK BECMG 1910/1912 09012KT BECMG 1919/1921 27005KT

Observacions i pronòstics meteorològics de més de 4000 aeroports (METAR i TAF).

Les estacions disponibles són els punts grocs i vermells al mapa.

Posi el ratolí al punt desitjat per veure el nom de l'estació.

Feu clic per veure les observacions i els pronòstics meteorològics.

Per canviar el mapa: feu clic els botons verds amb una creu de color negre per apropar; al botó verd amb un guió per allunyar la imatge; o en les fletxes verdes per a mapes adjacents.


METAR-TAF: